createdAt,value
2022-09-06T00:00:51.831Z,16.80
2022-09-06T00:02:53.657Z,16.80
2022-09-06T00:04:55.464Z,16.80
2022-09-06T00:06:57.236Z,16.80
2022-09-06T00:08:59.764Z,16.80
2022-09-06T00:11:01.626Z,16.70
2022-09-06T00:13:06.135Z,16.70
2022-09-06T00:15:08.559Z,16.70
2022-09-06T00:17:10.582Z,16.70
2022-09-06T00:19:12.357Z,16.70
2022-09-06T00:21:23.883Z,16.70
2022-09-06T00:23:25.840Z,16.70
2022-09-06T00:25:28.842Z,16.60
2022-09-06T00:27:30.924Z,16.60
2022-09-06T00:29:32.896Z,16.60
2022-09-06T00:31:35.604Z,16.60
2022-09-06T00:33:37.400Z,16.60
2022-09-06T00:35:39.249Z,16.60
2022-09-06T00:37:41.079Z,16.50
2022-09-06T00:39:42.999Z,16.50
2022-09-06T00:41:44.820Z,16.50
2022-09-06T00:43:46.681Z,16.50
2022-09-06T00:45:48.703Z,16.50
2022-09-06T00:47:51.116Z,16.50
2022-09-06T00:49:54.977Z,16.50
2022-09-06T00:52:04.809Z,16.50
2022-09-06T00:54:08.839Z,16.50
2022-09-06T00:56:11.145Z,16.50
2022-09-06T00:58:13.580Z,16.50
2022-09-06T01:00:16.136Z,16.50
2022-09-06T01:02:18.045Z,16.50
2022-09-06T01:04:20.048Z,16.50
2022-09-06T01:06:26.386Z,16.50
2022-09-06T01:08:47.999Z,16.50
2022-09-06T01:11:14.755Z,16.50
2022-09-06T01:13:42.719Z,16.50
2022-09-06T01:16:01.821Z,16.40
2022-09-06T01:18:38.605Z,16.40
2022-09-06T01:21:10.369Z,16.40
2022-09-06T01:23:20.853Z,16.40
2022-09-06T01:25:54.214Z,16.30
2022-09-06T01:28:17.248Z,16.30
2022-09-06T01:30:20.122Z,16.30
2022-09-06T01:32:28.075Z,16.20
2022-09-06T01:34:38.502Z,16.20
2022-09-06T01:37:11.124Z,16.20
2022-09-06T01:39:26.826Z,16.20
2022-09-06T01:41:29.463Z,16.10
2022-09-06T01:43:39.711Z,16.10
2022-09-06T01:46:02.855Z,16.10
2022-09-06T01:48:24.110Z,16.10
2022-09-06T01:50:55.618Z,16.10
2022-09-06T01:53:09.653Z,16.10
2022-09-06T01:55:16.952Z,16.00
2022-09-06T01:57:37.292Z,16.00
2022-09-06T01:59:57.742Z,16.00
2022-09-06T02:02:18.189Z,15.90
2022-09-06T02:04:25.833Z,15.90
2022-09-06T02:06:32.073Z,15.90
2022-09-06T02:08:42.342Z,15.90
2022-09-06T02:10:52.955Z,15.90
2022-09-06T02:12:59.477Z,15.90
2022-09-06T02:15:25.687Z,15.80
2022-09-06T02:17:34.060Z,15.80
2022-09-06T02:20:01.324Z,15.70
2022-09-06T02:22:07.725Z,15.80
2022-09-06T02:24:14.646Z,15.70
2022-09-06T02:26:24.030Z,15.70
2022-09-06T02:28:26.898Z,15.70
2022-09-06T02:30:29.360Z,15.60
2022-09-06T02:32:37.390Z,15.60
2022-09-06T02:34:43.255Z,15.60
2022-09-06T02:36:45.769Z,15.60
2022-09-06T02:38:47.988Z,15.50
2022-09-06T02:40:53.759Z,15.50
2022-09-06T02:42:55.617Z,15.50
2022-09-06T02:44:57.390Z,15.50
2022-09-06T02:46:59.148Z,15.50
2022-09-06T02:49:01.079Z,15.50
2022-09-06T02:51:04.685Z,15.50
2022-09-06T02:53:12.225Z,15.50
2022-09-06T02:55:14.056Z,15.50
2022-09-06T02:57:15.831Z,15.40
2022-09-06T02:59:17.631Z,15.40
2022-09-06T03:01:19.564Z,15.40
2022-09-06T03:03:21.932Z,15.40
2022-09-06T03:05:24.558Z,15.30
2022-09-06T03:07:26.384Z,15.30
2022-09-06T03:09:28.196Z,15.30
2022-09-06T03:11:30.146Z,15.30
2022-09-06T03:13:31.890Z,15.30
2022-09-06T03:15:33.668Z,15.30
2022-09-06T03:17:35.509Z,15.30
2022-09-06T03:19:37.286Z,15.30
2022-09-06T03:21:39.144Z,15.30
2022-09-06T03:23:41.220Z,15.30
2022-09-06T03:25:43.259Z,15.20
2022-09-06T03:27:45.056Z,15.20
2022-09-06T03:29:46.866Z,15.20
2022-09-06T03:31:48.626Z,15.20
2022-09-06T03:33:50.444Z,15.20
2022-09-06T03:35:55.016Z,15.20
2022-09-06T03:37:56.834Z,15.20
2022-09-06T03:39:59.818Z,15.20
2022-09-06T03:42:01.795Z,15.10
2022-09-06T03:44:03.694Z,15.10
2022-09-06T03:46:05.647Z,15.10
2022-09-06T03:48:07.531Z,15.10
2022-09-06T03:50:09.560Z,15.10
2022-09-06T03:52:11.383Z,15.00
2022-09-06T03:54:13.175Z,15.10
2022-09-06T03:56:14.954Z,15.10
2022-09-06T03:58:19.016Z,15.00
2022-09-06T04:00:20.924Z,15.00
2022-09-06T04:02:22.783Z,15.00
2022-09-06T04:04:24.636Z,15.00
2022-09-06T04:06:26.566Z,15.00
2022-09-06T04:08:28.893Z,15.00
2022-09-06T04:10:30.771Z,14.90
2022-09-06T04:12:33.283Z,14.90
2022-09-06T04:14:35.077Z,14.90
2022-09-06T04:16:36.902Z,14.90
2022-09-06T04:18:38.924Z,14.90
2022-09-06T04:20:40.831Z,14.80
2022-09-06T04:22:42.917Z,14.90
2022-09-06T04:24:44.688Z,14.80
2022-09-06T04:26:46.530Z,14.80
2022-09-06T04:28:48.325Z,14.80
2022-09-06T04:30:53.769Z,14.80
2022-09-06T04:32:55.619Z,14.80
2022-09-06T04:34:57.366Z,14.80
2022-09-06T04:36:59.142Z,14.80
2022-09-06T04:39:00.995Z,14.80
2022-09-06T04:41:03.048Z,14.80
2022-09-06T04:43:04.813Z,14.80
2022-09-06T04:45:07.221Z,14.80
2022-09-06T04:47:14.937Z,14.80
2022-09-06T04:49:16.736Z,14.70
2022-09-06T04:51:19.202Z,14.80
2022-09-06T04:53:21.088Z,14.70
2022-09-06T04:55:22.864Z,14.70
2022-09-06T04:57:24.624Z,14.70
2022-09-06T04:59:26.465Z,14.80
2022-09-06T05:01:28.322Z,14.80
2022-09-06T05:03:30.177Z,14.80
2022-09-06T05:05:31.982Z,14.80
2022-09-06T05:07:33.750Z,14.80
2022-09-06T05:09:36.782Z,14.80
2022-09-06T05:11:38.534Z,14.80
2022-09-06T05:13:41.145Z,14.90
2022-09-06T05:15:42.898Z,14.80
2022-09-06T05:17:44.874Z,14.90
2022-09-06T05:19:46.734Z,14.90
2022-09-06T05:21:48.520Z,14.90
2022-09-06T05:23:50.294Z,15.00
2022-09-06T05:25:52.835Z,15.00
2022-09-06T05:27:54.611Z,15.00
2022-09-06T05:29:56.452Z,15.10
2022-09-06T05:31:59.048Z,15.10
2022-09-06T05:34:01.108Z,15.10
2022-09-06T05:36:07.783Z,15.20
2022-09-06T05:38:10.207Z,15.20
2022-09-06T05:40:12.459Z,15.20
2022-09-06T05:42:19.019Z,15.30
2022-09-06T05:44:21.233Z,15.30
2022-09-06T05:46:23.118Z,15.40
2022-09-06T05:48:24.936Z,15.40
2022-09-06T05:50:26.711Z,15.50
2022-09-06T05:52:29.136Z,15.50
2022-09-06T05:54:30.934Z,15.50
2022-09-06T05:56:32.717Z,15.60
2022-09-06T05:58:34.649Z,15.60
2022-09-06T06:00:36.528Z,15.70
2022-09-06T06:02:38.619Z,15.80
2022-09-06T06:04:40.423Z,15.80
2022-09-06T06:06:42.232Z,15.90
2022-09-06T06:08:44.012Z,16.00
2022-09-06T06:10:45.800Z,16.10
2022-09-06T06:12:47.609Z,16.20
2022-09-06T06:14:49.386Z,16.20
2022-09-06T06:16:51.901Z,16.30
2022-09-06T06:18:53.767Z,16.40
2022-09-06T06:21:17.597Z,16.50
2022-09-06T06:23:19.398Z,16.60
2022-09-06T06:25:26.117Z,16.60
2022-09-06T06:27:27.923Z,16.70
2022-09-06T06:29:29.712Z,16.70
2022-09-06T06:31:33.320Z,16.80
2022-09-06T06:33:36.345Z,16.90
2022-09-06T06:35:40.148Z,17.00
2022-09-06T06:37:42.422Z,17.00
2022-09-06T06:39:45.078Z,17.10
2022-09-06T06:41:47.949Z,17.20
2022-09-06T06:43:56.078Z,17.20
2022-09-06T06:45:57.918Z,17.30
2022-09-06T06:47:59.772Z,17.30
2022-09-06T06:50:01.638Z,17.40
2022-09-06T06:52:03.684Z,17.50
2022-09-06T06:54:06.229Z,17.60
2022-09-06T06:56:31.717Z,17.70
2022-09-06T06:58:33.461Z,17.80
2022-09-06T07:00:35.265Z,17.90
2022-09-06T07:02:37.082Z,18.00
2022-09-06T07:04:38.928Z,18.00
2022-09-06T07:09:13.363Z,18.10
2022-09-06T07:11:17.865Z,18.20
2022-09-06T07:13:20.529Z,18.30
2022-09-06T07:15:22.338Z,18.30
2022-09-06T07:17:24.167Z,18.40
2022-09-06T07:21:47.884Z,18.60
2022-09-06T07:26:06.970Z,18.80
2022-09-06T07:28:08.769Z,18.90
2022-09-06T07:30:11.437Z,19.10
2022-09-06T07:32:13.296Z,19.20
2022-09-06T07:34:15.155Z,19.30
2022-09-06T07:36:16.974Z,19.40
2022-09-06T07:38:18.827Z,19.60
2022-09-06T07:40:20.621Z,19.60
2022-09-06T07:42:22.405Z,19.70
2022-09-06T07:44:24.226Z,19.80
2022-09-06T07:46:26.026Z,19.80
2022-09-06T07:48:29.807Z,19.90
2022-09-06T07:50:49.010Z,19.90
2022-09-06T07:53:07.239Z,20.00
2022-09-06T07:55:12.835Z,20.00
2022-09-06T07:57:14.626Z,20.00
2022-09-06T07:59:16.695Z,20.00
2022-09-06T08:01:48.347Z,20.00
2022-09-06T08:03:50.177Z,20.00
2022-09-06T08:10:30.973Z,19.80
2022-09-06T08:12:32.727Z,19.90
2022-09-06T08:14:35.223Z,19.90
2022-09-06T08:16:38.396Z,19.90
2022-09-06T08:18:40.455Z,19.90
2022-09-06T08:20:42.276Z,19.90
2022-09-06T08:22:44.087Z,19.90
2022-09-06T08:24:45.898Z,19.90
2022-09-06T08:26:47.740Z,19.90
2022-09-06T08:28:58.135Z,19.90
2022-09-06T08:31:14.286Z,19.90
2022-09-06T08:33:17.921Z,20.00
2022-09-06T08:35:19.704Z,20.00
2022-09-06T08:37:24.964Z,20.00
2022-09-06T08:39:27.087Z,20.10
2022-09-06T08:41:53.613Z,20.30
2022-09-06T08:46:49.634Z,20.60
2022-09-06T08:48:51.478Z,20.70
2022-09-06T08:51:28.465Z,20.80
2022-09-06T08:53:30.988Z,21.00
2022-09-06T08:56:07.086Z,21.10
2022-09-06T08:58:39.496Z,21.20
2022-09-06T09:00:48.130Z,21.20
2022-09-06T09:02:52.336Z,21.30
2022-09-06T09:05:00.228Z,21.40
2022-09-06T09:07:36.398Z,21.50
2022-09-06T09:09:38.183Z,21.50
2022-09-06T09:11:43.650Z,21.60
2022-09-06T09:14:04.856Z,21.70
2022-09-06T09:16:06.813Z,21.80
2022-09-06T09:18:08.784Z,21.80
2022-09-06T09:20:11.222Z,21.80
2022-09-06T09:22:17.052Z,21.90
2022-09-06T09:24:18.886Z,21.90
2022-09-06T09:26:23.701Z,21.90
2022-09-06T09:28:25.897Z,21.90
2022-09-06T09:30:47.803Z,21.90
2022-09-06T09:32:50.284Z,21.90
2022-09-06T09:34:52.144Z,21.90
2022-09-06T09:39:37.987Z,21.90
2022-09-06T09:41:43.667Z,21.80
2022-09-06T09:44:02.288Z,21.90
2022-09-06T09:46:24.595Z,21.90
2022-09-06T09:48:27.643Z,22.10
2022-09-06T09:50:34.951Z,22.10
2022-09-06T09:52:44.571Z,22.20
2022-09-06T09:54:47.647Z,22.30
2022-09-06T09:56:51.662Z,22.40
2022-09-06T09:58:56.034Z,22.50
2022-09-06T10:01:26.478Z,22.50
2022-09-06T10:03:30.386Z,22.60
2022-09-06T10:05:32.239Z,22.60
2022-09-06T10:07:34.696Z,22.60
2022-09-06T10:09:39.604Z,22.60
2022-09-06T10:11:54.789Z,22.60
2022-09-06T10:14:11.284Z,22.60
2022-09-06T10:16:13.613Z,22.50
2022-09-06T10:18:30.813Z,22.50
2022-09-06T10:20:40.953Z,22.50
2022-09-06T10:22:54.604Z,22.50
2022-09-06T10:25:02.014Z,22.60
2022-09-06T10:27:03.923Z,22.60
2022-09-06T10:29:09.976Z,22.60
2022-09-06T10:31:35.165Z,22.70
2022-09-06T10:34:06.341Z,22.70
2022-09-06T10:36:08.163Z,22.80
2022-09-06T10:38:24.588Z,22.90
2022-09-06T10:40:59.893Z,23.00
2022-09-06T10:43:05.703Z,23.10
2022-09-06T10:45:31.350Z,23.20
2022-09-06T10:47:57.000Z,23.30
2022-09-06T10:50:00.749Z,23.40
2022-09-06T10:52:06.514Z,23.40
2022-09-06T10:54:14.805Z,23.50
2022-09-06T10:56:18.932Z,23.60
2022-09-06T10:58:28.645Z,23.70
2022-09-06T11:00:53.063Z,23.80
2022-09-06T11:05:41.053Z,23.90
2022-09-06T11:10:14.772Z,24.10
2022-09-06T11:12:37.552Z,24.20
2022-09-06T11:14:40.577Z,24.20
2022-09-06T11:16:50.797Z,24.30
2022-09-06T11:18:58.302Z,24.30
2022-09-06T11:21:14.292Z,24.30
2022-09-06T11:23:24.050Z,24.40
2022-09-06T11:25:50.172Z,24.50
2022-09-06T11:27:58.069Z,24.60
2022-09-06T11:30:01.905Z,24.70
2022-09-06T11:32:25.303Z,24.70
2022-09-06T11:34:37.226Z,24.80
2022-09-06T11:36:50.480Z,24.90
2022-09-06T11:39:01.855Z,25.00
2022-09-06T11:41:13.523Z,25.00
2022-09-06T11:43:35.778Z,25.10
2022-09-06T11:45:48.023Z,25.10
2022-09-06T11:47:53.896Z,25.20
2022-09-06T11:49:55.668Z,25.20
2022-09-06T11:51:57.759Z,25.30
2022-09-06T11:53:59.585Z,25.40
2022-09-06T11:56:01.367Z,25.40
2022-09-06T11:58:08.869Z,25.50
2022-09-06T12:00:24.442Z,25.60
2022-09-06T12:02:31.857Z,25.70
2022-09-06T12:05:07.488Z,25.90
2022-09-06T12:07:12.529Z,26.00
2022-09-06T12:09:29.340Z,26.00
2022-09-06T12:11:48.613Z,26.00
2022-09-06T12:14:05.696Z,26.00
2022-09-06T12:16:08.619Z,26.00
2022-09-06T12:18:10.694Z,26.10
2022-09-06T12:20:57.099Z,26.10
2022-09-06T12:22:59.002Z,26.20
2022-09-06T12:25:23.408Z,26.10
2022-09-06T12:27:29.521Z,26.10
2022-09-06T12:29:31.327Z,26.20
2022-09-06T12:32:01.605Z,26.20
2022-09-06T12:34:09.496Z,26.30
2022-09-06T12:36:31.694Z,26.30
2022-09-06T12:38:33.420Z,26.40
2022-09-06T12:40:48.693Z,26.50
2022-09-06T12:42:51.481Z,26.60
2022-09-06T12:44:55.555Z,26.70
2022-09-06T12:47:03.184Z,26.80
2022-09-06T12:49:11.203Z,26.90
2022-09-06T12:51:20.491Z,26.90
2022-09-06T12:53:25.462Z,27.00
2022-09-06T12:55:38.585Z,27.10
2022-09-06T12:57:49.016Z,27.10
2022-09-06T12:59:58.160Z,27.10
2022-09-06T13:02:20.708Z,27.10
2022-09-06T13:04:41.783Z,27.10
2022-09-06T13:06:46.442Z,27.20
2022-09-06T13:08:51.486Z,27.20
2022-09-06T13:10:53.394Z,27.20
2022-09-06T13:12:58.437Z,27.30
2022-09-06T13:15:32.214Z,27.40
2022-09-06T13:17:35.508Z,27.50
2022-09-06T13:19:42.526Z,27.60
2022-09-06T13:21:46.369Z,27.80
2022-09-06T13:23:52.657Z,27.90
2022-09-06T13:25:56.015Z,28.10
2022-09-06T13:27:58.095Z,28.20
2022-09-06T13:30:02.852Z,28.30
2022-09-06T13:32:09.074Z,28.30
2022-09-06T13:34:10.837Z,28.40
2022-09-06T13:36:20.762Z,28.40
2022-09-06T13:38:38.731Z,28.40
2022-09-06T13:41:09.297Z,28.30
2022-09-06T13:43:11.886Z,28.20
2022-09-06T13:45:28.489Z,28.10
2022-09-06T13:47:30.311Z,28.20
2022-09-06T13:49:32.916Z,28.20
2022-09-06T13:51:35.448Z,28.40
2022-09-06T13:53:37.162Z,28.50
2022-09-06T13:55:40.105Z,28.70
2022-09-06T13:57:41.873Z,28.90
2022-09-06T13:59:43.663Z,29.10
2022-09-06T14:01:49.773Z,29.30
2022-09-06T14:03:52.377Z,29.40
2022-09-06T14:05:54.060Z,29.50
2022-09-06T14:07:56.023Z,29.50
2022-09-06T14:09:57.795Z,29.40
2022-09-06T14:11:59.611Z,29.40
2022-09-06T14:14:01.451Z,29.50
2022-09-06T14:16:05.505Z,29.70
2022-09-06T14:18:09.562Z,29.80
2022-09-06T14:20:14.689Z,29.90
2022-09-06T14:22:16.712Z,30.00
2022-09-06T14:24:18.834Z,30.10
2022-09-06T14:26:23.242Z,30.30
2022-09-06T14:28:26.025Z,30.40
2022-09-06T14:30:27.955Z,30.40
2022-09-06T14:32:29.701Z,30.60
2022-09-06T14:34:31.590Z,30.70
2022-09-06T14:36:34.210Z,30.80
2022-09-06T14:38:38.140Z,30.80
2022-09-06T14:40:41.266Z,30.90
2022-09-06T14:42:43.797Z,30.80
2022-09-06T14:44:47.701Z,30.80
2022-09-06T14:46:53.344Z,30.70
2022-09-06T14:49:13.339Z,30.70
2022-09-06T14:51:20.786Z,30.50
2022-09-06T14:53:39.424Z,30.20
2022-09-06T14:55:42.601Z,30.10
2022-09-06T14:57:44.289Z,29.90
2022-09-06T14:59:46.114Z,29.60
2022-09-06T15:01:47.991Z,29.50
2022-09-06T15:03:52.224Z,29.30
2022-09-06T15:05:54.036Z,29.20
2022-09-06T15:07:55.844Z,29.10
2022-09-06T15:09:58.115Z,29.10
2022-09-06T15:12:00.070Z,29.00
2022-09-06T15:14:04.032Z,29.00
2022-09-06T15:16:07.477Z,28.90
2022-09-06T15:18:09.298Z,28.90
2022-09-06T15:20:11.666Z,28.90
2022-09-06T15:22:13.544Z,28.90
2022-09-06T15:24:16.279Z,28.90
2022-09-06T15:26:18.969Z,28.90
2022-09-06T15:28:21.021Z,28.90
2022-09-06T15:30:22.816Z,28.80
2022-09-06T15:32:25.222Z,28.80
2022-09-06T15:34:27.231Z,28.70
2022-09-06T15:36:30.385Z,28.60
2022-09-06T15:38:36.700Z,28.60
2022-09-06T15:40:39.046Z,28.60
2022-09-06T15:42:40.867Z,28.60
2022-09-06T15:44:42.939Z,28.60
2022-09-06T15:46:50.873Z,28.60
2022-09-06T15:48:53.892Z,28.60
2022-09-06T15:50:55.778Z,28.60
2022-09-06T15:52:57.645Z,28.60
2022-09-06T15:55:18.292Z,28.50
2022-09-06T15:57:20.131Z,28.50
2022-09-06T15:59:22.023Z,28.40
2022-09-06T16:01:25.733Z,28.40
2022-09-06T16:03:28.001Z,28.30
2022-09-06T16:07:51.866Z,28.10
2022-09-06T16:09:53.716Z,28.10
2022-09-06T16:11:55.624Z,28.10
2022-09-06T16:13:57.425Z,28.10
2022-09-06T16:16:01.103Z,28.10
2022-09-06T16:18:05.251Z,28.20
2022-09-06T16:20:07.646Z,28.10
2022-09-06T16:22:09.534Z,28.10
2022-09-06T16:24:13.599Z,28.00
2022-09-06T16:26:19.280Z,28.00
2022-09-06T16:28:23.333Z,28.00
2022-09-06T16:30:25.222Z,27.90
2022-09-06T16:32:27.235Z,27.90
2022-09-06T16:34:29.182Z,27.80
2022-09-06T16:36:31.264Z,27.80
2022-09-06T16:38:33.812Z,27.70
2022-09-06T16:40:36.397Z,27.70
2022-09-06T16:42:38.394Z,27.60
2022-09-06T16:44:40.277Z,27.60
2022-09-06T16:46:43.855Z,27.60
2022-09-06T16:48:56.945Z,27.60
2022-09-06T16:51:08.959Z,27.50
2022-09-06T16:53:10.773Z,27.50
2022-09-06T16:55:12.630Z,27.30
2022-09-06T16:57:14.887Z,27.30
2022-09-06T16:59:17.343Z,27.20
2022-09-06T17:01:19.640Z,27.10
2022-09-06T17:03:21.796Z,27.00
2022-09-06T17:05:23.716Z,26.90
2022-09-06T17:07:25.638Z,26.80
2022-09-06T17:09:27.476Z,26.80
2022-09-06T17:11:29.800Z,26.70
2022-09-06T17:13:32.375Z,26.60
2022-09-06T17:15:54.014Z,26.60
2022-09-06T17:17:55.817Z,26.50
2022-09-06T17:19:57.633Z,26.40
2022-09-06T17:21:59.550Z,26.30
2022-09-06T17:24:04.652Z,26.30
2022-09-06T17:26:06.968Z,26.20
2022-09-06T17:28:08.785Z,26.20
2022-09-06T17:30:11.157Z,26.10
2022-09-06T17:32:12.958Z,26.00
2022-09-06T17:34:14.974Z,25.90
2022-09-06T17:36:21.076Z,25.90
2022-09-06T17:38:22.966Z,25.80
2022-09-06T17:40:25.090Z,25.70
2022-09-06T17:42:26.910Z,25.70
2022-09-06T17:44:28.902Z,25.50
2022-09-06T17:46:31.174Z,25.50
2022-09-06T17:48:33.536Z,25.40
2022-09-06T17:50:35.540Z,25.30
2022-09-06T17:52:37.448Z,25.20
2022-09-06T17:54:39.400Z,25.10
2022-09-06T17:56:41.234Z,25.00
2022-09-06T17:58:44.381Z,24.90
2022-09-06T18:00:46.223Z,24.80
2022-09-06T18:02:48.278Z,24.60
2022-09-06T18:04:50.190Z,24.60
2022-09-06T18:06:52.029Z,24.50
2022-09-06T18:08:56.223Z,24.40
2022-09-06T18:10:58.076Z,24.20
2022-09-06T18:12:59.870Z,24.20
2022-09-06T18:15:02.255Z,24.10
2022-09-06T18:17:04.231Z,24.10
2022-09-06T18:19:07.923Z,24.00
2022-09-06T18:21:09.779Z,23.90
2022-09-06T18:23:11.584Z,23.90
2022-09-06T18:25:13.823Z,23.90
2022-09-06T18:27:16.568Z,23.80
2022-09-06T18:29:18.489Z,23.70
2022-09-06T18:31:22.798Z,23.70
2022-09-06T18:33:24.989Z,23.60
2022-09-06T18:35:26.825Z,23.50
2022-09-06T18:37:28.749Z,23.50
2022-09-06T18:39:30.676Z,23.50
2022-09-06T18:41:52.595Z,23.40
2022-09-06T18:43:58.127Z,23.30
2022-09-06T18:46:05.694Z,23.30
2022-09-06T18:48:07.564Z,23.20
2022-09-06T18:50:09.809Z,23.10
2022-09-06T18:52:11.669Z,23.00
2022-09-06T18:54:14.399Z,22.90
2022-09-06T18:56:16.257Z,22.90
2022-09-06T18:58:18.278Z,22.80
2022-09-06T19:00:20.145Z,22.70
2022-09-06T19:02:23.473Z,22.60
2022-09-06T19:04:25.399Z,22.50
2022-09-06T19:06:29.032Z,22.50
2022-09-06T19:08:31.068Z,22.40
2022-09-06T19:10:32.911Z,22.40
2022-09-06T19:12:34.722Z,22.30
2022-09-06T19:14:36.595Z,22.30
2022-09-06T19:16:38.639Z,22.20
2022-09-06T19:18:41.219Z,22.10
2022-09-06T19:20:43.030Z,22.10
2022-09-06T19:22:44.822Z,22.00
2022-09-06T19:24:46.644Z,22.00
2022-09-06T19:26:48.991Z,21.90
2022-09-06T19:28:57.278Z,21.90
2022-09-06T19:31:04.583Z,22.00
2022-09-06T19:33:06.353Z,21.80
2022-09-06T19:35:08.561Z,21.80
2022-09-06T19:37:10.336Z,21.70
2022-09-06T19:39:14.790Z,21.70
2022-09-06T19:41:17.247Z,21.70
2022-09-06T19:43:19.070Z,21.60
2022-09-06T19:45:20.979Z,21.50
2022-09-06T19:47:22.750Z,21.50
2022-09-06T19:49:24.554Z,21.50
2022-09-06T19:51:26.719Z,21.40
2022-09-06T19:53:30.732Z,21.40
2022-09-06T19:55:33.663Z,21.30
2022-09-06T19:57:35.736Z,21.30
2022-09-06T19:59:39.367Z,21.20
2022-09-06T20:01:43.408Z,21.20
2022-09-06T20:03:45.297Z,21.20
2022-09-06T20:05:47.899Z,21.10
2022-09-06T20:07:49.774Z,21.10
2022-09-06T20:09:52.627Z,21.00
2022-09-06T20:11:54.676Z,21.00
2022-09-06T20:13:56.604Z,20.90
2022-09-06T20:15:58.483Z,20.90
2022-09-06T20:18:00.307Z,20.90
2022-09-06T20:20:03.499Z,20.80
2022-09-06T20:22:05.350Z,20.80
2022-09-06T20:24:07.340Z,20.70
2022-09-06T20:26:15.828Z,20.70
2022-09-06T20:28:17.624Z,20.60
2022-09-06T20:30:19.789Z,20.60
2022-09-06T20:32:21.661Z,20.50
2022-09-06T20:34:23.625Z,20.50
2022-09-06T20:36:25.894Z,20.50
2022-09-06T20:38:27.713Z,20.50
2022-09-06T20:40:29.597Z,20.40
2022-09-06T20:42:31.403Z,20.40
2022-09-06T20:44:34.173Z,20.40
2022-09-06T20:46:36.942Z,20.30
2022-09-06T20:48:44.233Z,20.30
2022-09-06T20:50:46.831Z,20.20
2022-09-06T20:52:48.677Z,20.20
2022-09-06T20:54:51.315Z,20.20
2022-09-06T20:56:54.122Z,20.20
2022-09-06T20:58:56.955Z,20.20
2022-09-06T21:00:59.976Z,20.10
2022-09-06T21:03:01.841Z,20.10
2022-09-06T21:05:05.267Z,20.10
2022-09-06T21:07:07.770Z,20.10
2022-09-06T21:09:14.406Z,20.00
2022-09-06T21:11:16.946Z,20.00
2022-09-06T21:13:18.809Z,20.00
2022-09-06T21:15:20.602Z,20.00
2022-09-06T21:17:22.448Z,19.90
2022-09-06T21:19:25.382Z,19.90
2022-09-06T21:21:28.661Z,19.90
2022-09-06T21:23:34.987Z,19.90
2022-09-06T21:25:36.777Z,19.80
2022-09-06T21:27:38.612Z,19.80
2022-09-06T21:29:40.436Z,19.80
2022-09-06T21:31:42.302Z,19.80
2022-09-06T21:33:46.384Z,19.70
2022-09-06T21:35:48.212Z,19.70
2022-09-06T21:37:51.860Z,19.70
2022-09-06T21:39:53.719Z,19.70
2022-09-06T21:41:55.696Z,19.60
2022-09-06T21:44:01.367Z,19.60
2022-09-06T21:46:05.033Z,19.60
2022-09-06T21:48:06.928Z,19.60
2022-09-06T21:50:09.277Z,19.50
2022-09-06T21:52:11.096Z,19.50
2022-09-06T21:54:12.925Z,19.50
2022-09-06T21:56:15.714Z,19.40
2022-09-06T21:58:17.434Z,19.40
2022-09-06T22:00:19.326Z,19.30
2022-09-06T22:02:21.419Z,19.20
2022-09-06T22:04:23.282Z,19.20
2022-09-06T22:06:28.711Z,19.20
2022-09-06T22:08:30.647Z,19.20
2022-09-06T22:10:32.514Z,19.20
2022-09-06T22:12:34.462Z,19.10
2022-09-06T22:14:36.339Z,19.10
2022-09-06T22:16:39.849Z,19.10
2022-09-06T22:18:41.912Z,19.00
2022-09-06T22:20:43.710Z,19.00
2022-09-06T22:22:46.234Z,19.00
2022-09-06T22:24:48.104Z,18.90
2022-09-06T22:26:49.934Z,18.90
2022-09-06T22:28:56.629Z,18.90
2022-09-06T22:30:58.723Z,18.90
2022-09-06T22:33:00.620Z,18.80
2022-09-06T22:35:03.725Z,18.80
2022-09-06T22:37:05.964Z,18.80
2022-09-06T22:39:08.029Z,18.80
2022-09-06T22:41:09.972Z,18.70
2022-09-06T22:43:13.038Z,18.70
2022-09-06T22:45:14.901Z,18.70
2022-09-06T22:47:16.740Z,18.70
2022-09-06T22:49:18.537Z,18.60
2022-09-06T22:51:20.816Z,18.60
2022-09-06T22:53:23.299Z,18.50
2022-09-06T22:55:25.321Z,18.50
2022-09-06T22:57:27.432Z,18.50
2022-09-06T22:59:29.355Z,18.50
2022-09-06T23:01:32.714Z,18.40
2022-09-06T23:03:35.278Z,18.40
2022-09-06T23:05:37.214Z,18.40
2022-09-06T23:07:39.014Z,18.40
2022-09-06T23:09:40.856Z,18.40
2022-09-06T23:11:42.672Z,18.30
2022-09-06T23:13:46.017Z,18.30
2022-09-06T23:15:48.187Z,18.30
2022-09-06T23:17:50.008Z,18.30
2022-09-06T23:19:51.829Z,18.30
2022-09-06T23:21:53.658Z,18.30
2022-09-06T23:23:57.156Z,18.20
2022-09-06T23:26:06.997Z,18.20
2022-09-06T23:28:08.892Z,18.20
2022-09-06T23:30:11.558Z,18.10
2022-09-06T23:32:13.478Z,18.10
2022-09-06T23:34:15.814Z,18.10
2022-09-06T23:36:17.646Z,18.10
2022-09-06T23:38:20.471Z,18.00
2022-09-06T23:40:22.179Z,18.00
2022-09-06T23:42:24.567Z,18.00
2022-09-06T23:44:26.342Z,17.90
2022-09-06T23:46:28.248Z,17.90
2022-09-06T23:48:30.319Z,17.90
2022-09-06T23:50:32.156Z,17.90
2022-09-06T23:52:33.956Z,17.90
2022-09-06T23:54:36.302Z,17.90
2022-09-06T23:56:38.108Z,17.90
2022-09-06T23:58:40.308Z,17.90
